Montrose, CO

2:56 AM MDT on August 29, 2014 (GMT -0600)
Spring Creek | Change Station
CLOSE
Current Station
Personal Weather Station
Location: Montrose, CO
Elevation: 6020 ft
Nearby Weather Stations

Elev 6020 ft 38.44 °N, 107.90 °W | Updated 1 minute ago

Clear
Clear
49.2 °F
Feels Like 49 °F
N
2.0
Wind Variable Wind from ESE
Gusts 2.0 mph

Today
High -- | Low -- °F
--% Chance of Precip.
Yesterday
High -- | Low -- °F
Precip. -- in
6:38 AM 7:45 PM
Waxing Crescent, 13% visible
Pressure 30.05 in
Visibility 10.0 miles
Clouds Clear
Windchill 49 °F
Dew Point 45 °F
Humidity 86%
Rainfall 0.00 in
Snow Depth Not available.
UV 0 out of 12
Pollen 9.10 out of 12
Air Quality Not available.
Flu Activity Not available.
METAR KMTJ 290853Z AUTO 13008KT 10SM CLR 13/07 A3024 RMK AO2 SLP175 T01330072 56003

More Conditions Fewer Conditions

Pressure 30.05 in
Visibility 10.0 miles
Clouds Clear
Windchill 49 °F
Dew Point 45 °F
Humidity 86%
Rainfall 0.00 in
Snow Depth Not available.
UV 0 out of 12
Pollen 9.10 out of 12
Air Quality Not available.
Flu Activity Not available.
METAR KMTJ 290853Z AUTO 13008KT 10SM CLR 13/07 A3024 RMK AO2 SLP175 T01330072 56003

More Conditions Fewer Conditions

10-Day Weather Forecast

Almanac

Astronomy

Aug. 29, 2014 Rise Set
Actual Time 6:38 AM MDT 7:45 PM MDT
Civil Twilight 6:11 AM MDT 8:13 PM MDT
Nautical Twilight 5:38 AM MDT 8:45 PM MDT
Astronomical Twilight 5:04 AM MDT 9:19 PM MDT
Moon 10:27 AM MDT 9:49 PM MDT
Length of Visible Light 14h 01m
Length of Day
13h 07m
Tomorrow will be 2m 21s shorter.
Waxing Crescent, 13% of the Moon is Illuminated
Today
Waxing Crescent
Sep 2
First Quarter
Sep 8
Full
Sep 15
Last Quarter
Sep 24
New

Today's Extremes

State Highs State Lows

Community

WunderPhotos

Upload Photos

1,748,197 photos uploaded!

Nearby

Snow Depth

Station Depth Elevation
Columbine Pass 1 in 9400 ft
Idarado 7 in 9800 ft
Red Mountain Pass 0 in 11150 ft
Lone Cone 8 in 9600 ft
Park Reservoir 0 in 9960 ft

Earthquake Activity

City Distance Mag. Time & Date
No recent earthquake activity has been reported nearby.
Minimum magnitude displayed is 2.5.

Coastal Water Temperatures

Place Temperature
No Stations Reporting

Nearby Weather Stations